sensor_id;sensor_type;location;lat;lon;timestamp;pressure;altitude;pressure_sealevel;temperature;humidity
8069;BME280;4077;43.702;24.896;2023-05-25T00:00:26;99352.75;;;17.08;100.00
8069;BME280;4077;43.702;24.896;2023-05-25T00:02:53;99354.63;;;17.00;100.00
8069;BME280;4077;43.702;24.896;2023-05-25T00:05:19;99354.09;;;17.29;100.00
8069;BME280;4077;43.702;24.896;2023-05-25T00:07:45;99345.97;;;16.98;100.00
8069;BME280;4077;43.702;24.896;2023-05-25T00:10:11;99361.63;;;16.98;100.00
8069;BME280;4077;43.702;24.896;2023-05-25T00:12:36;99358.28;;;16.89;100.00
8069;BME280;4077;43.702;24.896;2023-05-25T00:15:04;99354.97;;;16.78;100.00
8069;BME280;4077;43.702;24.896;2023-05-25T00:17:29;99351.47;;;16.79;100.00
8069;BME280;4077;43.702;24.896;2023-05-25T00:19:57;99354.84;;;16.86;100.00
8069;BME280;4077;43.702;24.896;2023-05-25T00:22:23;99363.66;;;16.79;100.00
8069;BME280;4077;43.702;24.896;2023-05-25T00:24:48;99351.53;;;16.76;100.00
8069;BME280;4077;43.702;24.896;2023-05-25T00:27:14;99363.63;;;16.80;100.00
8069;BME280;4077;43.702;24.896;2023-05-25T00:29:39;99356.69;;;16.79;100.00
8069;BME280;4077;43.702;24.896;2023-05-25T00:32:05;99353.22;;;16.79;100.00
8069;BME280;4077;43.702;24.896;2023-05-25T00:34:30;99355.88;;;16.77;100.00
8069;BME280;4077;43.702;24.896;2023-05-25T00:36:56;99369.75;;;16.78;100.00
8069;BME280;4077;43.702;24.896;2023-05-25T00:39:22;99355.03;;;16.75;100.00
8069;BME280;4077;43.702;24.896;2023-05-25T00:41:48;99362.78;;;16.80;100.00
8069;BME280;4077;43.702;24.896;2023-05-25T00:44:14;99362.59;;;16.90;100.00
8069;BME280;4077;43.702;24.896;2023-05-25T00:46:46;99358.31;;;16.86;100.00
8069;BME280;4077;43.702;24.896;2023-05-25T00:49:17;99361.88;;;16.82;100.00
8069;BME280;4077;43.702;24.896;2023-05-25T00:51:43;99366.97;;;16.90;100.00
8069;BME280;4077;43.702;24.896;2023-05-25T00:54:11;99348.19;;;16.65;100.00
8069;BME280;4077;43.702;24.896;2023-05-25T00:56:39;99368.72;;;16.89;100.00
8069;BME280;4077;43.702;24.896;2023-05-25T00:59:08;99363.72;;;16.74;100.00
8069;BME280;4077;43.702;24.896;2023-05-25T01:01:36;99358.59;;;16.68;100.00
8069;BME280;4077;43.702;24.896;2023-05-25T01:04:06;99375.97;;;16.66;100.00
8069;BME280;4077;43.702;24.896;2023-05-25T01:06:35;99374.88;;;16.84;100.00
8069;BME280;4077;43.702;24.896;2023-05-25T01:09:03;99370.75;;;16.69;100.00
8069;BME280;4077;43.702;24.896;2023-05-25T01:11:35;99379.31;;;16.77;100.00
8069;BME280;4077;43.702;24.896;2023-05-25T01:14:01;99385.28;;;16.85;100.00
8069;BME280;4077;43.702;24.896;2023-05-25T01:16:27;99380.88;;;16.87;100.00
8069;BME280;4077;43.702;24.896;2023-05-25T01:18:54;99372.25;;;16.85;100.00
8069;BME280;4077;43.702;24.896;2023-05-25T01:21:36;99367.47;;;17.12;100.00
8069;BME280;4077;43.702;24.896;2023-05-25T01:24:33;99365.03;;;17.01;100.00
8069;BME280;4077;43.702;24.896;2023-05-25T01:27:24;99369.00;;;17.22;100.00
8069;BME280;4077;43.702;24.896;2023-05-25T01:29:53;99359.56;;;17.15;100.00
8069;BME280;4077;43.702;24.896;2023-05-25T01:32:20;99348.63;;;16.96;100.00
8069;BME280;4077;43.702;24.896;2023-05-25T01:34:47;99351.22;;;16.94;100.00
8069;BME280;4077;43.702;24.896;2023-05-25T01:37:14;99353.06;;;16.89;100.00
8069;BME280;4077;43.702;24.896;2023-05-25T01:39:42;99343.31;;;17.02;100.00
8069;BME280;4077;43.702;24.896;2023-05-25T01:42:07;99329.00;;;16.72;100.00
8069;BME280;4077;43.702;24.896;2023-05-25T01:44:34;99351.94;;;17.04;100.00
8069;BME280;4077;43.702;24.896;2023-05-25T01:47:06;99340.69;;;17.01;100.00
8069;BME280;4077;43.702;24.896;2023-05-25T01:49:45;99348.28;;;17.16;100.00
8069;BME280;4077;43.702;24.896;2023-05-25T01:52:25;99350.22;;;17.02;100.00
8069;BME280;4077;43.702;24.896;2023-05-25T01:54:57;99345.16;;;16.95;100.00
8069;BME280;4077;43.702;24.896;2023-05-25T01:57:25;99360.75;;;16.97;100.00
8069;BME280;4077;43.702;24.896;2023-05-25T01:59:54;99355.75;;;16.85;100.00
8069;BME280;4077;43.702;24.896;2023-05-25T02:02:24;99360.94;;;16.86;100.00
8069;BME280;4077;43.702;24.896;2023-05-25T02:04:52;99366.09;;;16.88;100.00
8069;BME280;4077;43.702;24.896;2023-05-25T02:07:19;99380.53;;;17.10;100.00
8069;BME280;4077;43.702;24.896;2023-05-25T02:09:45;99364.97;;;17.06;100.00
8069;BME280;4077;43.702;24.896;2023-05-25T02:12:10;99377.88;;;17.13;100.00
8069;BME280;4077;43.702;24.896;2023-05-25T02:14:36;99385.63;;;17.18;100.00
8069;BME280;4077;43.702;24.896;2023-05-25T02:17:01;99386.75;;;17.02;100.00
8069;BME280;4077;43.702;24.896;2023-05-25T02:19:28;99379.03;;;16.95;100.00
8069;BME280;4077;43.702;24.896;2023-05-25T02:21:53;99386.94;;;16.91;100.00
8069;BME280;4077;43.702;24.896;2023-05-25T02:24:19;99380.13;;;16.81;100.00
8069;BME280;4077;43.702;24.896;2023-05-25T02:26:44;99381.78;;;16.86;100.00
8069;BME280;4077;43.702;24.896;2023-05-25T02:29:10;99386.16;;;16.84;100.00
8069;BME280;4077;43.702;24.896;2023-05-25T02:31:36;99391.38;;;16.84;100.00
8069;BME280;4077;43.702;24.896;2023-05-25T02:34:01;99385.41;;;16.78;100.00
8069;BME280;4077;43.702;24.896;2023-05-25T02:36:28;99392.50;;;16.65;100.00
8069;BME280;4077;43.702;24.896;2023-05-25T02:38:53;99395.16;;;16.62;100.00
8069;BME280;4077;43.702;24.896;2023-05-25T02:41:19;99408.13;;;16.68;100.00
8069;BME280;4077;43.702;24.896;2023-05-25T02:43:45;99409.78;;;16.75;100.00
8069;BME280;4077;43.702;24.896;2023-05-25T02:46:11;99412.91;;;16.97;100.00
8069;BME280;4077;43.702;24.896;2023-05-25T02:48:38;99416.31;;;17.02;100.00
8069;BME280;4077;43.702;24.896;2023-05-25T02:51:03;99425.81;;;17.05;100.00
8069;BME280;4077;43.702;24.896;2023-05-25T02:53:29;99420.56;;;17.08;100.00
8069;BME280;4077;43.702;24.896;2023-05-25T02:55:54;99414.47;;;17.09;100.00
8069;BME280;4077;43.702;24.896;2023-05-25T02:58:20;99425.84;;;17.02;100.00
8069;BME280;4077;43.702;24.896;2023-05-25T03:00:46;99421.56;;;16.99;100.00
8069;BME280;4077;43.702;24.896;2023-05-25T03:03:12;99417.19;;;17.03;100.00
8069;BME280;4077;43.702;24.896;2023-05-25T03:05:37;99405.16;;;16.92;100.00
8069;BME280;4077;43.702;24.896;2023-05-25T03:08:03;99398.31;;;16.85;100.00
8069;BME280;4077;43.702;24.896;2023-05-25T03:10:28;99418.53;;;16.68;100.00
8069;BME280;4077;43.702;24.896;2023-05-25T03:12:53;99429.78;;;16.73;100.00
8069;BME280;4077;43.702;24.896;2023-05-25T03:15:19;99429.69;;;16.79;100.00
8069;BME280;4077;43.702;24.896;2023-05-25T03:17:44;99417.59;;;16.75;100.00
8069;BME280;4077;43.702;24.896;2023-05-25T03:20:10;99422.06;;;16.64;100.00
8069;BME280;4077;43.702;24.896;2023-05-25T03:22:36;99426.94;;;16.90;100.00
8069;BME280;4077;43.702;24.896;2023-05-25T03:25:02;99434.63;;;16.98;100.00
8069;BME280;4077;43.702;24.896;2023-05-25T03:27:28;99438.03;;;17.03;100.00
8069;BME280;4077;43.702;24.896;2023-05-25T03:29:53;99420.88;;;16.89;100.00
8069;BME280;4077;43.702;24.896;2023-05-25T03:32:18;99437.34;;;16.91;100.00
8069;BME280;4077;43.702;24.896;2023-05-25T03:34:44;99433.81;;;16.95;100.00
8069;BME280;4077;43.702;24.896;2023-05-25T03:37:10;99429.44;;;16.96;100.00
8069;BME280;4077;43.702;24.896;2023-05-25T03:39:35;99431.06;;;17.02;100.00
8069;BME280;4077;43.702;24.896;2023-05-25T03:42:01;99432.13;;;16.91;100.00
8069;BME280;4077;43.702;24.896;2023-05-25T03:44:27;99446.06;;;16.89;100.00
8069;BME280;4077;43.702;24.896;2023-05-25T03:46:53;99444.25;;;16.94;100.00
8069;BME280;4077;43.702;24.896;2023-05-25T03:49:18;99445.97;;;16.93;100.00
8069;BME280;4077;43.702;24.896;2023-05-25T03:51:44;99451.88;;;17.06;100.00
8069;BME280;4077;43.702;24.896;2023-05-25T03:54:09;99454.56;;;17.03;100.00
8069;BME280;4077;43.702;24.896;2023-05-25T03:56:35;99458.66;;;17.18;100.00
8069;BME280;4077;43.702;24.896;2023-05-25T03:59:00;99460.34;;;17.20;100.00
8069;BME280;4077;43.702;24.896;2023-05-25T04:01:26;99445.50;;;17.26;100.00
8069;BME280;4077;43.702;24.896;2023-05-25T04:03:54;99444.44;;;17.37;100.00
8069;BME280;4077;43.702;24.896;2023-05-25T04:06:21;99442.47;;;17.48;100.00
8069;BME280;4077;43.702;24.896;2023-05-25T04:08:52;99446.69;;;17.57;100.00
8069;BME280;4077;43.702;24.896;2023-05-25T04:11:18;99443.16;;;17.60;100.00
8069;BME280;4077;43.702;24.896;2023-05-25T04:13:44;99448.19;;;17.72;100.00
8069;BME280;4077;43.702;24.896;2023-05-25T04:16:10;99462.91;;;17.76;100.00
8069;BME280;4077;43.702;24.896;2023-05-25T04:18:37;99451.81;;;17.62;100.00
8069;BME280;4077;43.702;24.896;2023-05-25T04:21:02;99465.56;;;17.74;100.00
8069;BME280;4077;43.702;24.896;2023-05-25T04:23:28;99455.22;;;17.67;100.00
8069;BME280;4077;43.702;24.896;2023-05-25T04:25:53;99461.91;;;17.85;100.00
8069;BME280;4077;43.702;24.896;2023-05-25T04:28:19;99466.47;;;17.69;100.00
8069;BME280;4077;43.702;24.896;2023-05-25T04:30:44;99471.59;;;17.78;100.00
8069;BME280;4077;43.702;24.896;2023-05-25T04:33:10;99471.53;;;17.81;100.00
8069;BME280;4077;43.702;24.896;2023-05-25T04:35:38;99470.34;;;17.99;100.00
8069;BME280;4077;43.702;24.896;2023-05-25T04:38:05;99472.06;;;18.00;100.00
8069;BME280;4077;43.702;24.896;2023-05-25T04:40:31;99469.31;;;18.04;100.00
8069;BME280;4077;43.702;24.896;2023-05-25T04:43:00;99471.81;;;18.11;100.00
8069;BME280;4077;43.702;24.896;2023-05-25T04:45:25;99470.94;;;18.13;100.00
8069;BME280;4077;43.702;24.896;2023-05-25T04:47:53;99468.19;;;18.19;100.00
8069;BME280;4077;43.702;24.896;2023-05-25T04:50:20;99479.69;;;18.52;100.00
8069;BME280;4077;43.702;24.896;2023-05-25T04:52:46;99462.56;;;18.39;100.00
8069;BME280;4077;43.702;24.896;2023-05-25T04:55:11;99463.38;;;18.41;100.00
8069;BME280;4077;43.702;24.896;2023-05-25T04:57:37;99490.22;;;18.49;100.00
8069;BME280;4077;43.702;24.896;2023-05-25T05:00:03;99486.41;;;18.64;100.00
8069;BME280;4077;43.702;24.896;2023-05-25T05:02:30;99478.38;;;18.75;100.00
8069;BME280;4077;43.702;24.896;2023-05-25T05:04:55;99488.97;;;18.69;100.00
8069;BME280;4077;43.702;24.896;2023-05-25T05:07:21;99488.81;;;18.76;100.00
8069;BME280;4077;43.702;24.896;2023-05-25T05:09:47;99485.25;;;18.79;100.00
8069;BME280;4077;43.702;24.896;2023-05-25T05:12:13;99494.50;;;18.94;100.00
8069;BME280;4077;43.702;24.896;2023-05-25T05:14:38;99493.31;;;19.08;100.00
8069;BME280;4077;43.702;24.896;2023-05-25T05:17:04;99505.06;;;19.28;100.00
8069;BME280;4077;43.702;24.896;2023-05-25T05:19:29;99498.63;;;19.41;100.00
8069;BME280;4077;43.702;24.896;2023-05-25T05:21:57;99506.19;;;19.53;100.00
8069;BME280;4077;43.702;24.896;2023-05-25T05:24:22;99506.44;;;19.44;100.00
8069;BME280;4077;43.702;24.896;2023-05-25T05:26:48;99509.63;;;19.55;100.00
8069;BME280;4077;43.702;24.896;2023-05-25T05:29:14;99505.94;;;19.65;100.00
8069;BME280;4077;43.702;24.896;2023-05-25T05:31:41;99513.81;;;19.98;100.00
8069;BME280;4077;43.702;24.896;2023-05-25T05:34:06;99512.13;;;19.95;100.00
8069;BME280;4077;43.702;24.896;2023-05-25T05:36:32;99509.59;;;19.92;100.00
8069;BME280;4077;43.702;24.896;2023-05-25T05:38:58;99518.00;;;20.04;100.00
8069;BME280;4077;43.702;24.896;2023-05-25T05:41:23;99516.06;;;20.12;100.00
8069;BME280;4077;43.702;24.896;2023-05-25T05:43:48;99526.94;;;20.29;100.00
8069;BME280;4077;43.702;24.896;2023-05-25T05:46:14;99523.13;;;20.41;100.00
8069;BME280;4077;43.702;24.896;2023-05-25T05:48:39;99533.38;;;20.50;100.00
8069;BME280;4077;43.702;24.896;2023-05-25T05:51:06;99541.06;;;20.56;100.00
8069;BME280;4077;43.702;24.896;2023-05-25T05:53:31;99536.56;;;20.61;100.00
8069;BME280;4077;43.702;24.896;2023-05-25T05:55:59;99530.19;;;20.70;100.00
8069;BME280;4077;43.702;24.896;2023-05-25T05:58:25;99531.94;;;20.99;100.00
8069;BME280;4077;43.702;24.896;2023-05-25T06:00:51;99533.81;;;21.23;100.00
8069;BME280;4077;43.702;24.896;2023-05-25T06:03:17;99530.19;;;21.29;100.00
8069;BME280;4077;43.702;24.896;2023-05-25T06:05:43;99532.84;;;21.55;100.00
8069;BME280;4077;43.702;24.896;2023-05-25T06:08:08;99541.84;;;21.47;100.00
8069;BME280;4077;43.702;24.896;2023-05-25T06:10:38;99545.66;;;21.65;100.00
8069;BME280;4077;43.702;24.896;2023-05-25T06:13:04;99544.88;;;21.61;100.00
8069;BME280;4077;43.702;24.896;2023-05-25T06:15:32;99552.69;;;21.64;100.00
8069;BME280;4077;43.702;24.896;2023-05-25T06:17:57;99539.44;;;21.67;100.00
8069;BME280;4077;43.702;24.896;2023-05-25T06:20:22;99544.94;;;21.86;100.00
8069;BME280;4077;43.702;24.896;2023-05-25T06:22:48;99533.91;;;21.75;100.00
8069;BME280;4077;43.702;24.896;2023-05-25T06:25:14;99550.03;;;21.91;100.00
8069;BME280;4077;43.702;24.896;2023-05-25T06:27:40;99562.22;;;21.93;100.00
8069;BME280;4077;43.702;24.896;2023-05-25T06:30:06;99559.66;;;21.92;100.00
8069;BME280;4077;43.702;24.896;2023-05-25T06:32:32;99561.34;;;21.93;100.00
8069;BME280;4077;43.702;24.896;2023-05-25T06:34:58;99564.44;;;22.05;100.00
8069;BME280;4077;43.702;24.896;2023-05-25T06:37:23;99560.31;;;22.23;100.00
8069;BME280;4077;43.702;24.896;2023-05-25T06:39:48;99568.00;;;22.29;100.00
8069;BME280;4077;43.702;24.896;2023-05-25T06:42:14;99571.34;;;22.34;100.00
8069;BME280;4077;43.702;24.896;2023-05-25T06:44:39;99565.56;;;22.25;100.00
8069;BME280;4077;43.702;24.896;2023-05-25T06:47:05;99563.22;;;22.16;100.00
8069;BME280;4077;43.702;24.896;2023-05-25T06:49:31;99564.69;;;22.24;100.00
8069;BME280;4077;43.702;24.896;2023-05-25T06:51:56;99561.69;;;22.10;100.00
8069;BME280;4077;43.702;24.896;2023-05-25T06:54:22;99563.22;;;21.89;100.00
8069;BME280;4077;43.702;24.896;2023-05-25T06:56:47;99565.91;;;21.88;100.00
8069;BME280;4077;43.702;24.896;2023-05-25T06:59:13;99572.13;;;21.85;100.00
8069;BME280;4077;43.702;24.896;2023-05-25T07:01:38;99573.50;;;21.97;100.00
8069;BME280;4077;43.702;24.896;2023-05-25T07:04:04;99561.94;;;22.27;100.00
8069;BME280;4077;43.702;24.896;2023-05-25T07:06:29;99569.69;;;22.55;100.00
8069;BME280;4077;43.702;24.896;2023-05-25T07:08:55;99568.97;;;22.52;100.00
8069;BME280;4077;43.702;24.896;2023-05-25T07:11:20;99582.72;;;22.60;100.00
8069;BME280;4077;43.702;24.896;2023-05-25T07:13:47;99580.72;;;22.66;100.00
8069;BME280;4077;43.702;24.896;2023-05-25T07:16:13;99585.47;;;22.80;100.00
8069;BME280;4077;43.702;24.896;2023-05-25T07:18:39;99578.16;;;22.88;100.00
8069;BME280;4077;43.702;24.896;2023-05-25T07:21:06;99588.44;;;23.18;100.00
8069;BME280;4077;43.702;24.896;2023-05-25T07:23:34;99593.78;;;23.38;100.00
8069;BME280;4077;43.702;24.896;2023-05-25T07:26:00;99603.84;;;23.94;100.00
8069;BME280;4077;43.702;24.896;2023-05-25T07:28:25;99608.25;;;24.16;98.31
8069;BME280;4077;43.702;24.896;2023-05-25T07:30:50;99614.63;;;24.10;97.10
8069;BME280;4077;43.702;24.896;2023-05-25T07:33:16;99604.38;;;23.82;98.81
8069;BME280;4077;43.702;24.896;2023-05-25T07:35:41;99612.66;;;23.73;99.30
8069;BME280;4077;43.702;24.896;2023-05-25T07:38:07;99602.88;;;23.53;100.00
8069;BME280;4077;43.702;24.896;2023-05-25T07:40:32;99613.31;;;23.56;100.00
8069;BME280;4077;43.702;24.896;2023-05-25T07:42:57;99608.53;;;23.66;100.00
8069;BME280;4077;43.702;24.896;2023-05-25T07:45:23;99623.38;;;23.90;97.45
8069;BME280;4077;43.702;24.896;2023-05-25T07:47:48;99622.59;;;23.88;97.88
8069;BME280;4077;43.702;24.896;2023-05-25T07:50:14;99627.75;;;24.12;96.54
8069;BME280;4077;43.702;24.896;2023-05-25T07:52:40;99632.03;;;24.14;96.02
8069;BME280;4077;43.702;24.896;2023-05-25T07:55:06;99628.69;;;24.31;96.71
8069;BME280;4077;43.702;24.896;2023-05-25T07:57:32;99624.84;;;24.40;96.97
8069;BME280;4077;43.702;24.896;2023-05-25T07:59:58;99623.41;;;24.31;96.67
8069;BME280;4077;43.702;24.896;2023-05-25T08:02:24;99628.47;;;24.15;98.59
8069;BME280;4077;43.702;24.896;2023-05-25T08:04:49;99618.59;;;23.78;99.38
8069;BME280;4077;43.702;24.896;2023-05-25T08:07:14;99618.38;;;23.62;100.00
8069;BME280;4077;43.702;24.896;2023-05-25T08:09:40;99612.00;;;23.44;100.00
8069;BME280;4077;43.702;24.896;2023-05-25T08:12:05;99617.56;;;23.37;100.00
8069;BME280;4077;43.702;24.896;2023-05-25T08:14:31;99608.66;;;23.41;100.00
8069;BME280;4077;43.702;24.896;2023-05-25T08:16:56;99611.75;;;23.51;100.00
8069;BME280;4077;43.702;24.896;2023-05-25T08:19:21;99613.09;;;23.62;100.00
8069;BME280;4077;43.702;24.896;2023-05-25T08:21:48;99616.03;;;23.77;100.00
8069;BME280;4077;43.702;24.896;2023-05-25T08:24:17;99623.38;;;23.90;98.80
8069;BME280;4077;43.702;24.896;2023-05-25T08:26:43;99618.00;;;24.14;98.76
8069;BME280;4077;43.702;24.896;2023-05-25T08:29:10;99628.09;;;24.24;95.40
8069;BME280;4077;43.702;24.896;2023-05-25T08:31:36;99621.13;;;24.23;96.19
8069;BME280;4077;43.702;24.896;2023-05-25T08:34:01;99626.63;;;24.39;97.13
8069;BME280;4077;43.702;24.896;2023-05-25T08:36:27;99629.25;;;24.60;95.78
8069;BME280;4077;43.702;24.896;2023-05-25T08:38:52;99629.00;;;24.66;93.98
8069;BME280;4077;43.702;24.896;2023-05-25T08:41:18;99633.53;;;24.62;93.18
8069;BME280;4077;43.702;24.896;2023-05-25T08:43:45;99633.69;;;24.39;91.98
8069;BME280;4077;43.702;24.896;2023-05-25T08:46:11;99635.56;;;24.76;94.44
8069;BME280;4077;43.702;24.896;2023-05-25T08:48:37;99630.78;;;25.04;91.25
8069;BME280;4077;43.702;24.896;2023-05-25T08:51:07;99637.78;;;25.24;91.39
8069;BME280;4077;43.702;24.896;2023-05-25T08:53:37;99644.09;;;25.22;89.43
8069;BME280;4077;43.702;24.896;2023-05-25T08:56:09;99643.94;;;25.44;88.90
8069;BME280;4077;43.702;24.896;2023-05-25T08:58:41;99644.66;;;25.47;88.81
8069;BME280;4077;43.702;24.896;2023-05-25T09:01:12;99642.06;;;25.64;86.88
8069;BME280;4077;43.702;24.896;2023-05-25T09:03:40;99643.28;;;25.57;86.34
8069;BME280;4077;43.702;24.896;2023-05-25T09:06:05;99646.78;;;25.58;86.44
8069;BME280;4077;43.702;24.896;2023-05-25T09:08:31;99638.09;;;25.75;84.38
8069;BME280;4077;43.702;24.896;2023-05-25T09:10:57;99640.81;;;25.90;82.81
8069;BME280;4077;43.702;24.896;2023-05-25T09:13:23;99653.00;;;26.12;80.73
8069;BME280;4077;43.702;24.896;2023-05-25T09:15:49;99642.91;;;25.84;82.29
8069;BME280;4077;43.702;24.896;2023-05-25T09:18:16;99641.38;;;25.97;81.81
8069;BME280;4077;43.702;24.896;2023-05-25T09:20:41;99648.00;;;26.06;83.81
8069;BME280;4077;43.702;24.896;2023-05-25T09:23:08;99647.47;;;26.16;81.89
8069;BME280;4077;43.702;24.896;2023-05-25T09:25:34;99639.78;;;26.64;80.77
8069;BME280;4077;43.702;24.896;2023-05-25T09:28:00;99645.00;;;26.98;79.50
8069;BME280;4077;43.702;24.896;2023-05-25T09:30:25;99629.88;;;27.00;75.83
8069;BME280;4077;43.702;24.896;2023-05-25T09:33:11;99639.00;;;27.44;73.01
8069;BME280;4077;43.702;24.896;2023-05-25T09:35:37;99641.09;;;27.70;72.14
8069;BME280;4077;43.702;24.896;2023-05-25T09:38:02;99639.44;;;27.84;72.68
8069;BME280;4077;43.702;24.896;2023-05-25T09:40:30;99638.94;;;27.61;73.41
8069;BME280;4077;43.702;24.896;2023-05-25T09:42:57;99642.53;;;28.22;71.63
8069;BME280;4077;43.702;24.896;2023-05-25T09:45:22;99648.47;;;28.11;69.08
8069;BME280;4077;43.702;24.896;2023-05-25T09:47:48;99635.78;;;28.16;69.12
8069;BME280;4077;43.702;24.896;2023-05-25T09:50:13;99644.56;;;28.02;71.35
8069;BME280;4077;43.702;24.896;2023-05-25T09:52:40;99626.97;;;27.38;71.86
8069;BME280;4077;43.702;24.896;2023-05-25T09:55:08;99621.41;;;27.11;74.74
8069;BME280;4077;43.702;24.896;2023-05-25T09:57:34;99611.97;;;26.72;74.53
8069;BME280;4077;43.702;24.896;2023-05-25T10:00:00;99615.09;;;26.29;77.88
8069;BME280;4077;43.702;24.896;2023-05-25T10:02:29;99606.53;;;26.24;78.76
8069;BME280;4077;43.702;24.896;2023-05-25T10:04:55;99613.69;;;26.39;79.15
8069;BME280;4077;43.702;24.896;2023-05-25T10:07:21;99620.22;;;26.32;76.78
8069;BME280;4077;43.702;24.896;2023-05-25T10:09:49;99604.25;;;26.33;82.04
8069;BME280;4077;43.702;24.896;2023-05-25T10:12:18;99607.16;;;26.63;77.21
8069;BME280;4077;43.702;24.896;2023-05-25T10:14:49;99601.56;;;26.52;77.69
8069;BME280;4077;43.702;24.896;2023-05-25T10:17:25;99604.78;;;26.75;77.35
8069;BME280;4077;43.702;24.896;2023-05-25T10:19:59;99604.59;;;27.11;73.37
8069;BME280;4077;43.702;24.896;2023-05-25T10:22:35;99596.28;;;27.01;72.20
8069;BME280;4077;43.702;24.896;2023-05-25T10:25:24;99592.25;;;27.27;71.87
8069;BME280;4077;43.702;24.896;2023-05-25T10:27:56;99589.50;;;27.29;73.40
8069;BME280;4077;43.702;24.896;2023-05-25T10:30:24;99579.13;;;27.24;69.90
8069;BME280;4077;43.702;24.896;2023-05-25T10:32:51;99570.59;;;26.70;70.87
8069;BME280;4077;43.702;24.896;2023-05-25T10:35:16;99555.31;;;26.07;74.09
8069;BME280;4077;43.702;24.896;2023-05-25T10:37:43;99562.88;;;25.98;75.63
8069;BME280;4077;43.702;24.896;2023-05-25T10:40:10;99557.91;;;25.74;79.08
8069;BME280;4077;43.702;24.896;2023-05-25T10:42:36;99552.69;;;25.90;82.62
8069;BME280;4077;43.702;24.896;2023-05-25T10:45:05;99550.22;;;26.55;80.02
8069;BME280;4077;43.702;24.896;2023-05-25T10:47:32;99550.28;;;26.86;74.60
8069;BME280;4077;43.702;24.896;2023-05-25T10:49:58;99551.69;;;27.09;71.89
8069;BME280;4077;43.702;24.896;2023-05-25T10:52:28;99539.50;;;26.73;71.42
8069;BME280;4077;43.702;24.896;2023-05-25T10:54:58;99550.81;;;26.93;69.74
8069;BME280;4077;43.702;24.896;2023-05-25T10:57:26;99553.03;;;27.00;68.53
8069;BME280;4077;43.702;24.896;2023-05-25T11:00:05;99552.06;;;27.19;68.13
8069;BME280;4077;43.702;24.896;2023-05-25T11:02:52;99538.09;;;27.31;67.40
8069;BME280;4077;43.702;24.896;2023-05-25T11:07:57;99537.09;;;27.64;65.92
8069;BME280;4077;43.702;24.896;2023-05-25T11:13:21;99537.41;;;27.89;64.44
8069;BME280;4077;43.702;24.896;2023-05-25T11:18:54;99520.03;;;27.53;65.69
8069;BME280;4077;43.702;24.896;2023-05-25T11:26:31;99526.13;;;27.86;61.60
8069;BME280;4077;43.702;24.896;2023-05-25T11:28:58;99525.63;;;28.09;62.63
8069;BME280;4077;43.702;24.896;2023-05-25T11:31:28;99526.38;;;28.25;60.77
8069;BME280;4077;43.702;24.896;2023-05-25T11:34:00;99524.25;;;28.46;61.02
8069;BME280;4077;43.702;24.896;2023-05-25T11:36:28;99516.44;;;27.85;59.93
8069;BME280;4077;43.702;24.896;2023-05-25T11:38:59;99509.22;;;27.72;62.86
8069;BME280;4077;43.702;24.896;2023-05-25T11:41:28;99503.75;;;27.75;61.70
8069;BME280;4077;43.702;24.896;2023-05-25T11:43:54;99501.16;;;28.04;60.50
8069;BME280;4077;43.702;24.896;2023-05-25T11:46:20;99501.66;;;27.65;60.03
8069;BME280;4077;43.702;24.896;2023-05-25T11:48:51;99494.41;;;27.22;62.66
8069;BME280;4077;43.702;24.896;2023-05-25T11:51:19;99496.97;;;27.24;61.57
8069;BME280;4077;43.702;24.896;2023-05-25T11:53:44;99495.53;;;27.18;61.54
8069;BME280;4077;43.702;24.896;2023-05-25T11:56:12;99487.94;;;27.12;62.87
8069;BME280;4077;43.702;24.896;2023-05-25T11:58:37;99490.41;;;27.15;62.25
8069;BME280;4077;43.702;24.896;2023-05-25T12:01:20;99487.97;;;27.42;63.67
8069;BME280;4077;43.702;24.896;2023-05-25T12:03:50;99492.00;;;27.64;64.47
8069;BME280;4077;43.702;24.896;2023-05-25T12:06:27;99485.63;;;27.06;65.38
8069;BME280;4077;43.702;24.896;2023-05-25T12:08:56;99478.63;;;26.40;66.57
8069;BME280;4077;43.702;24.896;2023-05-25T12:11:33;99479.22;;;26.12;67.73
8069;BME280;4077;43.702;24.896;2023-05-25T12:14:02;99479.38;;;26.09;69.13
8069;BME280;4077;43.702;24.896;2023-05-25T12:16:28;99480.41;;;25.72;69.42
8069;BME280;4077;43.702;24.896;2023-05-25T12:18:55;99458.84;;;25.28;73.03
8069;BME280;4077;43.702;24.896;2023-05-25T12:21:21;99470.06;;;25.14;75.32
8069;BME280;4077;43.702;24.896;2023-05-25T12:23:47;99470.50;;;25.41;75.84
8069;BME280;4077;43.702;24.896;2023-05-25T12:26:15;99475.00;;;25.56;73.58
8069;BME280;4077;43.702;24.896;2023-05-25T12:29:16;99471.75;;;25.51;74.76
8069;BME280;4077;43.702;24.896;2023-05-25T12:31:42;99463.34;;;25.43;75.69
8069;BME280;4077;43.702;24.896;2023-05-25T12:34:09;99462.03;;;25.52;74.66
8069;BME280;4077;43.702;24.896;2023-05-25T12:36:54;99463.81;;;25.51;72.05
8069;BME280;4077;43.702;24.896;2023-05-25T12:41:56;99457.16;;;25.61;73.61
8069;BME280;4077;43.702;24.896;2023-05-25T12:44:27;99460.59;;;25.81;74.23
8069;BME280;4077;43.702;24.896;2023-05-25T12:46:56;99461.56;;;25.61;72.19
8069;BME280;4077;43.702;24.896;2023-05-25T12:49:29;99458.25;;;25.75;71.66
8069;BME280;4077;43.702;24.896;2023-05-25T12:51:56;99449.94;;;25.82;71.72
8069;BME280;4077;43.702;24.896;2023-05-25T12:54:45;99449.47;;;26.07;70.36
8069;BME280;4077;43.702;24.896;2023-05-25T12:57:16;99446.31;;;26.01;69.29
8069;BME280;4077;43.702;24.896;2023-05-25T12:59:44;99454.41;;;26.15;71.13
8069;BME280;4077;43.702;24.896;2023-05-25T13:02:11;99449.38;;;26.26;67.90
8069;BME280;4077;43.702;24.896;2023-05-25T13:04:38;99446.38;;;26.16;69.70
8069;BME280;4077;43.702;24.896;2023-05-25T13:07:04;99447.84;;;26.38;69.90
8069;BME280;4077;43.702;24.896;2023-05-25T13:09:30;99434.34;;;26.27;69.97
8069;BME280;4077;43.702;24.896;2023-05-25T13:11:57;99430.94;;;26.25;70.48
8069;BME280;4077;43.702;24.896;2023-05-25T13:14:24;99430.31;;;26.19;69.12
8069;BME280;4077;43.702;24.896;2023-05-25T13:16:51;99429.56;;;26.17;69.41
8069;BME280;4077;43.702;24.896;2023-05-25T13:19:18;99437.41;;;26.19;69.00
8069;BME280;4077;43.702;24.896;2023-05-25T13:21:44;99438.44;;;26.16;69.38